sensor_id;sensor_type;location;lat;lon;timestamp;P1;durP1;ratioP1;P2;durP2;ratioP2
44102;SDS011;29769;42.178;24.742;2023-02-27T00:00:11;16.70;;;4.47;;
44102;SDS011;29769;42.178;24.742;2023-02-27T00:02:58;17.80;;;4.70;;
44102;SDS011;29769;42.178;24.742;2023-02-27T00:05:43;16.77;;;5.00;;
44102;SDS011;29769;42.178;24.742;2023-02-27T00:08:27;18.90;;;6.35;;
44102;SDS011;29769;42.178;24.742;2023-02-27T00:11:12;24.73;;;5.75;;
44102;SDS011;29769;42.178;24.742;2023-02-27T00:13:57;26.13;;;5.28;;
44102;SDS011;29769;42.178;24.742;2023-02-27T00:19:27;23.80;;;5.50;;
44102;SDS011;29769;42.178;24.742;2023-02-27T00:22:12;28.77;;;5.65;;
44102;SDS011;29769;42.178;24.742;2023-02-27T00:24:57;27.60;;;5.13;;
44102;SDS011;29769;42.178;24.742;2023-02-27T00:30:27;18.92;;;5.75;;
44102;SDS011;29769;42.178;24.742;2023-02-27T00:35:59;16.52;;;5.10;;
44102;SDS011;29769;42.178;24.742;2023-02-27T00:38:45;20.60;;;4.35;;
44102;SDS011;29769;42.178;24.742;2023-02-27T00:41:30;22.52;;;6.35;;
44102;SDS011;29769;42.178;24.742;2023-02-27T00:44:15;17.45;;;4.82;;
44102;SDS011;29769;42.178;24.742;2023-02-27T00:47:00;19.95;;;5.25;;
44102;SDS011;29769;42.178;24.742;2023-02-27T00:49:45;22.40;;;5.50;;
44102;SDS011;29769;42.178;24.742;2023-02-27T00:55:17;29.35;;;6.97;;
44102;SDS011;29769;42.178;24.742;2023-02-27T00:58:02;30.50;;;6.70;;
44102;SDS011;29769;42.178;24.742;2023-02-27T01:00:46;22.15;;;6.07;;
44102;SDS011;29769;42.178;24.742;2023-02-27T01:03:31;28.80;;;5.65;;
44102;SDS011;29769;42.178;24.742;2023-02-27T01:06:16;18.52;;;6.60;;
44102;SDS011;29769;42.178;24.742;2023-02-27T01:09:01;29.45;;;6.55;;
44102;SDS011;29769;42.178;24.742;2023-02-27T01:11:47;30.42;;;6.22;;
44102;SDS011;29769;42.178;24.742;2023-02-27T01:14:32;23.73;;;5.45;;
44102;SDS011;29769;42.178;24.742;2023-02-27T01:17:17;22.75;;;5.85;;
44102;SDS011;29769;42.178;24.742;2023-02-27T01:20:02;31.02;;;6.18;;
44102;SDS011;29769;42.178;24.742;2023-02-27T01:22:48;26.38;;;5.63;;
44102;SDS011;29769;42.178;24.742;2023-02-27T01:25:33;26.55;;;5.95;;
44102;SDS011;29769;42.178;24.742;2023-02-27T01:28:18;29.67;;;5.82;;
44102;SDS011;29769;42.178;24.742;2023-02-27T01:33:49;29.75;;;5.25;;
44102;SDS011;29769;42.178;24.742;2023-02-27T01:39:19;26.90;;;5.85;;
44102;SDS011;29769;42.178;24.742;2023-02-27T01:42:05;25.48;;;6.38;;
44102;SDS011;29769;42.178;24.742;2023-02-27T01:48:11;24.05;;;6.35;;
44102;SDS011;29769;42.178;24.742;2023-02-27T01:51:11;17.90;;;5.83;;
44102;SDS011;29769;42.178;24.742;2023-02-27T01:54:00;27.80;;;7.05;;
44102;SDS011;29769;42.178;24.742;2023-02-27T01:56:47;23.25;;;6.40;;
44102;SDS011;29769;42.178;24.742;2023-02-27T01:59:34;31.65;;;7.13;;
44102;SDS011;29769;42.178;24.742;2023-02-27T02:02:24;30.17;;;6.65;;
44102;SDS011;29769;42.178;24.742;2023-02-27T02:05:14;31.02;;;6.28;;
44102;SDS011;29769;42.178;24.742;2023-02-27T02:10:44;33.65;;;6.38;;
44102;SDS011;29769;42.178;24.742;2023-02-27T02:13:32;33.22;;;6.97;;
44102;SDS011;29769;42.178;24.742;2023-02-27T02:40:05;30.63;;;5.88;;
44102;SDS011;29769;42.178;24.742;2023-02-27T02:42:56;23.90;;;6.18;;
44102;SDS011;29769;42.178;24.742;2023-02-27T02:48:43;28.92;;;5.88;;
44102;SDS011;29769;42.178;24.742;2023-02-27T02:51:39;17.67;;;5.65;;
44102;SDS011;29769;42.178;24.742;2023-02-27T02:58:00;27.00;;;6.90;;
44102;SDS011;29769;42.178;24.742;2023-02-27T03:00:54;25.33;;;7.32;;
44102;SDS011;29769;42.178;24.742;2023-02-27T03:03:48;23.55;;;6.43;;
44102;SDS011;29769;42.178;24.742;2023-02-27T03:06:41;23.40;;;6.15;;
44102;SDS011;29769;42.178;24.742;2023-02-27T03:09:36;26.33;;;7.88;;
44102;SDS011;29769;42.178;24.742;2023-02-27T03:12:25;22.15;;;7.43;;
44102;SDS011;29769;42.178;24.742;2023-02-27T03:15:14;20.20;;;6.20;;
44102;SDS011;29769;42.178;24.742;2023-02-27T03:18:06;22.90;;;5.35;;
44102;SDS011;29769;42.178;24.742;2023-02-27T03:20:54;22.75;;;5.95;;
44102;SDS011;29769;42.178;24.742;2023-02-27T03:23:44;21.25;;;8.40;;
44102;SDS011;29769;42.178;24.742;2023-02-27T03:26:32;38.05;;;11.20;;
44102;SDS011;29769;42.178;24.742;2023-02-27T03:29:25;44.72;;;16.42;;
44102;SDS011;29769;42.178;24.742;2023-02-27T03:32:20;21.73;;;7.70;;
44102;SDS011;29769;42.178;24.742;2023-02-27T03:35:07;26.02;;;7.22;;
44102;SDS011;29769;42.178;24.742;2023-02-27T03:38:17;24.92;;;6.35;;
44102;SDS011;29769;42.178;24.742;2023-02-27T03:41:06;33.25;;;7.15;;
44102;SDS011;29769;42.178;24.742;2023-02-27T03:44:10;37.13;;;8.55;;
44102;SDS011;29769;42.178;24.742;2023-02-27T03:47:05;44.42;;;9.00;;
44102;SDS011;29769;42.178;24.742;2023-02-27T03:49:50;30.77;;;7.90;;
44102;SDS011;29769;42.178;24.742;2023-02-27T03:52:35;28.45;;;8.75;;
44102;SDS011;29769;42.178;24.742;2023-02-27T03:55:26;22.65;;;7.20;;
44102;SDS011;29769;42.178;24.742;2023-02-27T03:58:16;36.78;;;5.95;;
44102;SDS011;29769;42.178;24.742;2023-02-27T04:01:01;24.88;;;6.78;;
44102;SDS011;29769;42.178;24.742;2023-02-27T04:03:56;25.85;;;9.02;;
44102;SDS011;29769;42.178;24.742;2023-02-27T04:07:37;18.88;;;8.45;;
44102;SDS011;29769;42.178;24.742;2023-02-27T04:16:54;35.08;;;6.88;;
44102;SDS011;29769;42.178;24.742;2023-02-27T04:22:46;33.13;;;8.88;;
44102;SDS011;29769;42.178;24.742;2023-02-27T04:25:40;23.25;;;5.28;;
44102;SDS011;29769;42.178;24.742;2023-02-27T04:29:01;15.88;;;5.18;;
44102;SDS011;29769;42.178;24.742;2023-02-27T04:31:56;21.25;;;6.32;;
44102;SDS011;29769;42.178;24.742;2023-02-27T04:34:49;32.97;;;5.82;;
44102;SDS011;29769;42.178;24.742;2023-02-27T04:37:49;31.73;;;7.35;;
44102;SDS011;29769;42.178;24.742;2023-02-27T04:40:38;21.38;;;7.32;;
44102;SDS011;29769;42.178;24.742;2023-02-27T04:43:27;19.25;;;4.30;;
44102;SDS011;29769;42.178;24.742;2023-02-27T04:46:14;17.55;;;3.50;;
44102;SDS011;29769;42.178;24.742;2023-02-27T04:49:03;10.13;;;2.63;;
44102;SDS011;29769;42.178;24.742;2023-02-27T04:55:21;6.97;;;1.08;;
44102;SDS011;29769;42.178;24.742;2023-02-27T04:58:17;6.57;;;1.13;;
44102;SDS011;29769;42.178;24.742;2023-02-27T05:01:40;3.22;;;0.98;;
44102;SDS011;29769;42.178;24.742;2023-02-27T05:04:17;6.07;;;0.93;;
44102;SDS011;29769;42.178;24.742;2023-02-27T05:07:07;5.63;;;1.27;;
44102;SDS011;29769;42.178;24.742;2023-02-27T05:09:57;9.95;;;2.00;;
44102;SDS011;29769;42.178;24.742;2023-02-27T05:18:51;3.40;;;1.60;;
44102;SDS011;29769;42.178;24.742;2023-02-27T05:21:39;9.82;;;2.55;;
44102;SDS011;29769;42.178;24.742;2023-02-27T05:24:40;7.68;;;2.30;;
44102;SDS011;29769;42.178;24.742;2023-02-27T05:30:35;6.95;;;2.00;;
44102;SDS011;29769;42.178;24.742;2023-02-27T05:33:32;6.68;;;2.28;;
44102;SDS011;29769;42.178;24.742;2023-02-27T05:36:44;11.48;;;2.35;;
44102;SDS011;29769;42.178;24.742;2023-02-27T05:39:39;7.63;;;3.08;;
44102;SDS011;29769;42.178;24.742;2023-02-27T05:42:29;4.10;;;2.20;;
44102;SDS011;29769;42.178;24.742;2023-02-27T05:45:19;7.40;;;2.20;;
44102;SDS011;29769;42.178;24.742;2023-02-27T05:48:10;11.77;;;3.78;;
44102;SDS011;29769;42.178;24.742;2023-02-27T05:50:59;10.50;;;2.75;;
44102;SDS011;29769;42.178;24.742;2023-02-27T05:53:47;13.13;;;4.15;;
44102;SDS011;29769;42.178;24.742;2023-02-27T05:56:38;10.82;;;4.15;;
44102;SDS011;29769;42.178;24.742;2023-02-27T06:02:19;4.78;;;2.60;;
44102;SDS011;29769;42.178;24.742;2023-02-27T06:05:05;6.05;;;2.78;;
44102;SDS011;29769;42.178;24.742;2023-02-27T06:07:51;11.60;;;3.00;;
44102;SDS011;29769;42.178;24.742;2023-02-27T06:10:35;28.33;;;4.40;;
44102;SDS011;29769;42.178;24.742;2023-02-27T06:13:21;12.68;;;3.10;;
44102;SDS011;29769;42.178;24.742;2023-02-27T06:16:08;8.18;;;3.40;;
44102;SDS011;29769;42.178;24.742;2023-02-27T06:18:55;11.48;;;3.50;;
44102;SDS011;29769;42.178;24.742;2023-02-27T06:21:40;15.95;;;4.55;;
44102;SDS011;29769;42.178;24.742;2023-02-27T06:24:25;8.93;;;3.10;;
44102;SDS011;29769;42.178;24.742;2023-02-27T06:27:10;12.10;;;3.47;;
44102;SDS011;29769;42.178;24.742;2023-02-27T06:29:55;12.13;;;4.65;;
44102;SDS011;29769;42.178;24.742;2023-02-27T06:32:41;9.38;;;3.72;;
44102;SDS011;29769;42.178;24.742;2023-02-27T06:35:26;10.02;;;3.83;;
44102;SDS011;29769;42.178;24.742;2023-02-27T06:38:12;12.00;;;4.93;;
44102;SDS011;29769;42.178;24.742;2023-02-27T06:43:42;16.00;;;6.20;;
44102;SDS011;29769;42.178;24.742;2023-02-27T06:49:11;20.45;;;7.25;;
44102;SDS011;29769;42.178;24.742;2023-02-27T06:51:56;15.02;;;6.65;;
44102;SDS011;29769;42.178;24.742;2023-02-27T06:54:41;16.15;;;6.45;;
44102;SDS011;29769;42.178;24.742;2023-02-27T06:57:26;6.43;;;2.20;;
44102;SDS011;29769;42.178;24.742;2023-02-27T07:00:11;9.68;;;2.58;;
44102;SDS011;29769;42.178;24.742;2023-02-27T07:02:56;7.43;;;2.72;;
44102;SDS011;29769;42.178;24.742;2023-02-27T07:05:41;5.43;;;2.88;;
44102;SDS011;29769;42.178;24.742;2023-02-27T07:08:26;9.25;;;2.20;;
44102;SDS011;29769;42.178;24.742;2023-02-27T07:11:11;10.48;;;3.75;;
44102;SDS011;29769;42.178;24.742;2023-02-27T07:13:56;16.00;;;5.00;;
44102;SDS011;29769;42.178;24.742;2023-02-27T07:16:41;13.35;;;4.97;;
44102;SDS011;29769;42.178;24.742;2023-02-27T07:19:26;10.68;;;4.13;;
44102;SDS011;29769;42.178;24.742;2023-02-27T07:22:11;10.25;;;3.53;;
44102;SDS011;29769;42.178;24.742;2023-02-27T07:27:40;12.20;;;3.60;;
44102;SDS011;29769;42.178;24.742;2023-02-27T07:30:27;8.48;;;3.60;;
44102;SDS011;29769;42.178;24.742;2023-02-27T07:33:14;5.97;;;3.13;;
44102;SDS011;29769;42.178;24.742;2023-02-27T07:35:59;9.07;;;2.80;;
44102;SDS011;29769;42.178;24.742;2023-02-27T07:38:44;6.00;;;2.58;;
44102;SDS011;29769;42.178;24.742;2023-02-27T07:41:29;6.32;;;2.80;;
44102;SDS011;29769;42.178;24.742;2023-02-27T07:44:17;8.20;;;2.28;;
44102;SDS011;29769;42.178;24.742;2023-02-27T07:47:02;6.00;;;2.45;;
44102;SDS011;29769;42.178;24.742;2023-02-27T07:49:46;7.78;;;2.50;;
44102;SDS011;29769;42.178;24.742;2023-02-27T07:52:32;7.03;;;2.47;;
44102;SDS011;29769;42.178;24.742;2023-02-27T07:58:01;7.57;;;3.10;;
44102;SDS011;29769;42.178;24.742;2023-02-27T08:03:30;7.47;;;2.40;;
44102;SDS011;29769;42.178;24.742;2023-02-27T08:06:15;9.70;;;2.30;;
44102;SDS011;29769;42.178;24.742;2023-02-27T08:09:00;11.90;;;2.72;;
44102;SDS011;29769;42.178;24.742;2023-02-27T08:11:45;8.80;;;2.50;;
44102;SDS011;29769;42.178;24.742;2023-02-27T08:14:29;5.25;;;2.45;;
44102;SDS011;29769;42.178;24.742;2023-02-27T08:17:15;7.97;;;2.47;;
44102;SDS011;29769;42.178;24.742;2023-02-27T08:20:00;10.15;;;3.22;;
44102;SDS011;29769;42.178;24.742;2023-02-27T08:22:45;7.90;;;3.20;;
44102;SDS011;29769;42.178;24.742;2023-02-27T08:28:15;13.68;;;2.50;;
44102;SDS011;29769;42.178;24.742;2023-02-27T08:31:01;6.65;;;3.00;;
44102;SDS011;29769;42.178;24.742;2023-02-27T08:33:46;9.65;;;3.47;;
44102;SDS011;29769;42.178;24.742;2023-02-27T08:36:31;15.40;;;3.80;;
44102;SDS011;29769;42.178;24.742;2023-02-27T08:39:16;9.93;;;3.80;;
44102;SDS011;29769;42.178;24.742;2023-02-27T08:42:02;7.97;;;3.75;;
44102;SDS011;29769;42.178;24.742;2023-02-27T08:44:47;12.23;;;4.30;;
44102;SDS011;29769;42.178;24.742;2023-02-27T08:47:33;11.18;;;3.63;;
44102;SDS011;29769;42.178;24.742;2023-02-27T08:50:18;11.27;;;2.92;;
44102;SDS011;29769;42.178;24.742;2023-02-27T08:53:03;11.02;;;3.05;;
44102;SDS011;29769;42.178;24.742;2023-02-27T08:55:48;11.68;;;3.20;;
44102;SDS011;29769;42.178;24.742;2023-02-27T08:58:36;15.25;;;3.25;;
44102;SDS011;29769;42.178;24.742;2023-02-27T09:01:21;8.45;;;3.40;;
44102;SDS011;29769;42.178;24.742;2023-02-27T09:04:07;14.57;;;3.38;;
44102;SDS011;29769;42.178;24.742;2023-02-27T09:06:52;11.70;;;3.38;;
44102;SDS011;29769;42.178;24.742;2023-02-27T09:09:37;17.50;;;3.85;;
44102;SDS011;29769;42.178;24.742;2023-02-27T09:12:22;39.70;;;5.05;;
44102;SDS011;29769;42.178;24.742;2023-02-27T09:15:07;17.05;;;4.30;;
44102;SDS011;29769;42.178;24.742;2023-02-27T09:17:54;13.30;;;3.22;;
44102;SDS011;29769;42.178;24.742;2023-02-27T09:20:43;10.75;;;3.80;;
44102;SDS011;29769;42.178;24.742;2023-02-27T09:23:29;16.23;;;4.00;;
44102;SDS011;29769;42.178;24.742;2023-02-27T09:26:14;17.45;;;4.65;;
44102;SDS011;29769;42.178;24.742;2023-02-27T09:29:00;13.90;;;4.38;;
44102;SDS011;29769;42.178;24.742;2023-02-27T09:31:45;20.10;;;3.42;;
44102;SDS011;29769;42.178;24.742;2023-02-27T09:34:29;16.25;;;3.35;;
44102;SDS011;29769;42.178;24.742;2023-02-27T09:37:14;17.50;;;3.05;;
44102;SDS011;29769;42.178;24.742;2023-02-27T09:40:00;13.80;;;3.75;;
44102;SDS011;29769;42.178;24.742;2023-02-27T09:42:45;15.00;;;3.33;;
44102;SDS011;29769;42.178;24.742;2023-02-27T09:45:31;12.55;;;3.25;;
44102;SDS011;29769;42.178;24.742;2023-02-27T09:48:27;10.73;;;3.25;;
44102;SDS011;29769;42.178;24.742;2023-02-27T09:51:26;6.75;;;2.25;;
44102;SDS011;29769;42.178;24.742;2023-02-27T09:54:12;12.65;;;3.15;;
44102;SDS011;29769;42.178;24.742;2023-02-27T09:56:59;69.25;;;6.40;;
44102;SDS011;29769;42.178;24.742;2023-02-27T10:00:03;6.85;;;2.38;;
44102;SDS011;29769;42.178;24.742;2023-02-27T10:03:22;6.72;;;2.10;;
44102;SDS011;29769;42.178;24.742;2023-02-27T10:09:15;5.43;;;2.17;;
44102;SDS011;29769;42.178;24.742;2023-02-27T10:12:05;8.98;;;2.40;;
44102;SDS011;29769;42.178;24.742;2023-02-27T10:18:09;14.93;;;2.58;;
44102;SDS011;29769;42.178;24.742;2023-02-27T10:21:02;9.38;;;2.50;;
44102;SDS011;29769;42.178;24.742;2023-02-27T10:23:57;6.40;;;1.98;;
44102;SDS011;29769;42.178;24.742;2023-02-27T10:26:44;8.27;;;2.47;;
44102;SDS011;29769;42.178;24.742;2023-02-27T10:29:30;16.88;;;2.75;;
44102;SDS011;29769;42.178;24.742;2023-02-27T10:38:19;11.48;;;3.35;;
44102;SDS011;29769;42.178;24.742;2023-02-27T10:41:11;12.23;;;3.85;;
44102;SDS011;29769;42.178;24.742;2023-02-27T10:43:58;12.60;;;2.20;;
44102;SDS011;29769;42.178;24.742;2023-02-27T10:46:44;14.93;;;2.67;;
44102;SDS011;29769;42.178;24.742;2023-02-27T10:49:30;5.45;;;2.13;;
44102;SDS011;29769;42.178;24.742;2023-02-27T10:52:16;16.75;;;2.40;;
44102;SDS011;29769;42.178;24.742;2023-02-27T10:55:15;8.93;;;3.35;;
44102;SDS011;29769;42.178;24.742;2023-02-27T10:58:03;8.45;;;2.45;;
44102;SDS011;29769;42.178;24.742;2023-02-27T11:00:53;9.25;;;2.60;;
44102;SDS011;29769;42.178;24.742;2023-02-27T11:03:41;11.95;;;3.10;;
44102;SDS011;29769;42.178;24.742;2023-02-27T11:06:27;8.88;;;2.47;;
44102;SDS011;29769;42.178;24.742;2023-02-27T11:14:56;7.50;;;2.30;;
44102;SDS011;29769;42.178;24.742;2023-02-27T11:17:43;18.27;;;2.85;;
44102;SDS011;29769;42.178;24.742;2023-02-27T11:20:38;20.90;;;3.85;;
44102;SDS011;29769;42.178;24.742;2023-02-27T11:23:26;20.83;;;3.63;;
44102;SDS011;29769;42.178;24.742;2023-02-27T11:26:14;21.52;;;3.67;;
44102;SDS011;29769;42.178;24.742;2023-02-27T11:29:11;15.32;;;3.80;;
44102;SDS011;29769;42.178;24.742;2023-02-27T11:32:11;22.10;;;3.58;;
44102;SDS011;29769;42.178;24.742;2023-02-27T11:34:58;21.10;;;4.15;;
44102;SDS011;29769;42.178;24.742;2023-02-27T11:37:43;34.47;;;5.22;;
44102;SDS011;29769;42.178;24.742;2023-02-27T11:40:33;38.35;;;6.00;;
44102;SDS011;29769;42.178;24.742;2023-02-27T11:46:35;27.98;;;4.22;;
44102;SDS011;29769;42.178;24.742;2023-02-27T11:49:27;17.65;;;3.42;;
44102;SDS011;29769;42.178;24.742;2023-02-27T11:52:19;27.88;;;4.65;;
44102;SDS011;29769;42.178;24.742;2023-02-27T11:55:13;14.88;;;4.30;;
44102;SDS011;29769;42.178;24.742;2023-02-27T11:58:17;21.48;;;4.53;;
44102;SDS011;29769;42.178;24.742;2023-02-27T12:01:04;27.38;;;4.15;;
44102;SDS011;29769;42.178;24.742;2023-02-27T12:10:05;30.40;;;4.15;;
44102;SDS011;29769;42.178;24.742;2023-02-27T12:13:12;24.02;;;4.20;;
44102;SDS011;29769;42.178;24.742;2023-02-27T12:19:21;21.77;;;4.57;;
44102;SDS011;29769;42.178;24.742;2023-02-27T12:31:47;26.58;;;4.25;;
44102;SDS011;29769;42.178;24.742;2023-02-27T12:37:36;22.58;;;4.30;;
44102;SDS011;29769;42.178;24.742;2023-02-27T12:40:25;40.17;;;5.22;;
44102;SDS011;29769;42.178;24.742;2023-02-27T12:52:18;29.73;;;4.72;;
44102;SDS011;29769;42.178;24.742;2023-02-27T12:55:17;35.13;;;4.72;;
44102;SDS011;29769;42.178;24.742;2023-02-27T13:01:29;55.05;;;6.32;;
44102;SDS011;29769;42.178;24.742;2023-02-27T13:04:24;40.20;;;4.88;;
44102;SDS011;29769;42.178;24.742;2023-02-27T13:07:29;24.58;;;4.03;;
44102;SDS011;29769;42.178;24.742;2023-02-27T13:13:37;39.30;;;4.97;;
44102;SDS011;29769;42.178;24.742;2023-02-27T13:16:32;32.40;;;4.32;;
44102;SDS011;29769;42.178;24.742;2023-02-27T13:19:28;35.17;;;4.68;;
44102;SDS011;29769;42.178;24.742;2023-02-27T13:22:57;35.08;;;5.15;;
44102;SDS011;29769;42.178;24.742;2023-02-27T13:25:42;47.40;;;6.55;;
44102;SDS011;29769;42.178;24.742;2023-02-27T13:28:31;50.38;;;5.80;;
44102;SDS011;29769;42.178;24.742;2023-02-27T13:34:24;32.78;;;6.07;;
44102;SDS011;29769;42.178;24.742;2023-02-27T13:37:15;42.80;;;5.68;;
44102;SDS011;29769;42.178;24.742;2023-02-27T13:40:00;27.23;;;5.82;;
44102;SDS011;29769;42.178;24.742;2023-02-27T13:45:50;41.90;;;5.93;;
44102;SDS011;29769;42.178;24.742;2023-02-27T13:54:27;46.17;;;6.32;;
44102;SDS011;29769;42.178;24.742;2023-02-27T14:00:19;32.88;;;5.32;;
44102;SDS011;29769;42.178;24.742;2023-02-27T14:03:15;31.23;;;5.85;;
44102;SDS011;29769;42.178;24.742;2023-02-27T14:06:04;30.13;;;5.28;;
44102;SDS011;29769;42.178;24.742;2023-02-27T14:08:50;44.58;;;5.40;;
44102;SDS011;29769;42.178;24.742;2023-02-27T14:11:39;28.20;;;5.60;;
44102;SDS011;29769;42.178;24.742;2023-02-27T14:26:01;44.05;;;5.90;;
44102;SDS011;29769;42.178;24.742;2023-02-27T14:28:58;56.28;;;5.40;;
44102;SDS011;29769;42.178;24.742;2023-02-27T14:31:44;52.17;;;6.35;;
44102;SDS011;29769;42.178;24.742;2023-02-27T14:34:29;52.28;;;6.88;;
44102;SDS011;29769;42.178;24.742;2023-02-27T14:37:15;54.75;;;7.10;;
44102;SDS011;29769;42.178;24.742;2023-02-27T14:40:05;44.10;;;7.20;;
44102;SDS011;29769;42.178;24.742;2023-02-27T14:46:05;53.28;;;6.88;;
44102;SDS011;29769;42.178;24.742;2023-02-27T14:49:05;49.80;;;6.60;;
44102;SDS011;29769;42.178;24.742;2023-02-27T14:55:28;60.63;;;6.43;;
44102;SDS011;29769;42.178;24.742;2023-02-27T14:58:19;45.53;;;6.10;;
44102;SDS011;29769;42.178;24.742;2023-02-27T15:01:07;60.88;;;8.50;;
44102;SDS011;29769;42.178;24.742;2023-02-27T15:03:55;87.38;;;9.73;;
44102;SDS011;29769;42.178;24.742;2023-02-27T15:06:41;80.32;;;8.23;;
44102;SDS011;29769;42.178;24.742;2023-02-27T15:09:39;43.08;;;6.57;;
44102;SDS011;29769;42.178;24.742;2023-02-27T15:12:26;35.92;;;6.43;;
44102;SDS011;29769;42.178;24.742;2023-02-27T15:15:18;48.22;;;7.25;;
44102;SDS011;29769;42.178;24.742;2023-02-27T15:18:10;49.05;;;7.38;;
44102;SDS011;29769;42.178;24.742;2023-02-27T15:20:57;44.08;;;6.03;;
44102;SDS011;29769;42.178;24.742;2023-02-27T15:23:42;43.65;;;6.70;;
44102;SDS011;29769;42.178;24.742;2023-02-27T15:26:29;32.33;;;5.80;;
44102;SDS011;29769;42.178;24.742;2023-02-27T15:29:20;37.00;;;8.57;;
44102;SDS011;29769;42.178;24.742;2023-02-27T15:32:07;41.95;;;6.82;;
44102;SDS011;29769;42.178;24.742;2023-02-27T15:36:01;46.25;;;5.70;;
44102;SDS011;29769;42.178;24.742;2023-02-27T15:38:28;43.17;;;6.68;;
44102;SDS011;29769;42.178;24.742;2023-02-27T15:41:14;52.05;;;6.00;;
44102;SDS011;29769;42.178;24.742;2023-02-27T15:44:04;46.30;;;5.40;;
44102;SDS011;29769;42.178;24.742;2023-02-27T15:46:49;36.45;;;7.22;;
44102;SDS011;29769;42.178;24.742;2023-02-27T15:49:35;58.35;;;9.30;;
44102;SDS011;29769;42.178;24.742;2023-02-27T15:52:21;58.47;;;9.65;;
44102;SDS011;29769;42.178;24.742;2023-02-27T15:55:15;38.78;;;8.57;;
44102;SDS011;29769;42.178;24.742;2023-02-27T15:58:23;49.97;;;8.63;;
44102;SDS011;29769;42.178;24.742;2023-02-27T16:01:16;45.78;;;7.07;;
44102;SDS011;29769;42.178;24.742;2023-02-27T16:04:04;42.22;;;7.63;;
44102;SDS011;29769;42.178;24.742;2023-02-27T16:07:01;39.83;;;6.55;;
44102;SDS011;29769;42.178;24.742;2023-02-27T16:09:50;52.97;;;7.22;;
44102;SDS011;29769;42.178;24.742;2023-02-27T16:12:43;57.03;;;6.50;;
44102;SDS011;29769;42.178;24.742;2023-02-27T16:15:36;56.05;;;7.90;;
44102;SDS011;29769;42.178;24.742;2023-02-27T16:21:15;45.08;;;7.20;;
44102;SDS011;29769;42.178;24.742;2023-02-27T16:24:18;62.28;;;8.32;;
44102;SDS011;29769;42.178;24.742;2023-02-27T16:27:22;51.17;;;7.47;;
44102;SDS011;29769;42.178;24.742;2023-02-27T16:30:08;38.17;;;7.68;;
44102;SDS011;29769;42.178;24.742;2023-02-27T16:32:57;40.65;;;6.65;;
44102;SDS011;29769;42.178;24.742;2023-02-27T16:35:44;33.97;;;5.95;;
44102;SDS011;29769;42.178;24.742;2023-02-27T16:38:29;44.55;;;7.57;;
44102;SDS011;29769;42.178;24.742;2023-02-27T16:43:59;36.05;;;6.75;;
44102;SDS011;29769;42.178;24.742;2023-02-27T16:49:29;30.75;;;7.00;;
44102;SDS011;29769;42.178;24.742;2023-02-27T16:54:58;32.03;;;5.28;;
44102;SDS011;29769;42.178;24.742;2023-02-27T16:57:43;30.80;;;5.93;;
44102;SDS011;29769;42.178;24.742;2023-02-27T17:00:28;21.77;;;5.03;;
44102;SDS011;29769;42.178;24.742;2023-02-27T17:03:13;22.40;;;4.85;;
44102;SDS011;29769;42.178;24.742;2023-02-27T17:05:58;24.48;;;4.15;;
44102;SDS011;29769;42.178;24.742;2023-02-27T17:08:46;27.63;;;3.95;;
44102;SDS011;29769;42.178;24.742;2023-02-27T17:11:31;32.38;;;5.60;;
44102;SDS011;29769;42.178;24.742;2023-02-27T17:14:15;24.45;;;4.78;;
44102;SDS011;29769;42.178;24.742;2023-02-27T17:17:01;35.72;;;6.80;;
44102;SDS011;29769;42.178;24.742;2023-02-27T17:19:45;30.45;;;4.55;;
44102;SDS011;29769;42.178;24.742;2023-02-27T17:22:32;29.83;;;4.70;;
44102;SDS011;29769;42.178;24.742;2023-02-27T17:25:18;25.38;;;3.90;;
44102;SDS011;29769;42.178;24.742;2023-02-27T17:30:49;32.20;;;4.60;;
44102;SDS011;29769;42.178;24.742;2023-02-27T17:33:33;34.05;;;4.45;;
44102;SDS011;29769;42.178;24.742;2023-02-27T17:39:03;28.27;;;3.58;;
44102;SDS011;29769;42.178;24.742;2023-02-27T17:41:48;28.42;;;4.05;;
44102;SDS011;29769;42.178;24.742;2023-02-27T17:44:36;26.83;;;4.38;;
44102;SDS011;29769;42.178;24.742;2023-02-27T17:50:05;21.58;;;3.92;;
44102;SDS011;29769;42.178;24.742;2023-02-27T17:55:37;24.50;;;5.35;;
44102;SDS011;29769;42.178;24.742;2023-02-27T17:58:22;25.10;;;4.68;;
44102;SDS011;29769;42.178;24.742;2023-02-27T18:01:08;38.38;;;6.13;;
44102;SDS011;29769;42.178;24.742;2023-02-27T18:03:54;30.67;;;5.13;;
44102;SDS011;29769;42.178;24.742;2023-02-27T18:06:40;31.52;;;4.45;;
44102;SDS011;29769;42.178;24.742;2023-02-27T18:09:25;37.15;;;5.38;;
44102;SDS011;29769;42.178;24.742;2023-02-27T18:14:54;34.53;;;5.93;;
44102;SDS011;29769;42.178;24.742;2023-02-27T18:20:25;30.13;;;4.68;;
44102;SDS011;29769;42.178;24.742;2023-02-27T18:23:10;28.95;;;5.68;;
44102;SDS011;29769;42.178;24.742;2023-02-27T18:25:56;36.33;;;5.40;;
44102;SDS011;29769;42.178;24.742;2023-02-27T18:28:41;29.17;;;5.60;;
44102;SDS011;29769;42.178;24.742;2023-02-27T18:31:27;32.47;;;5.63;;
44102;SDS011;29769;42.178;24.742;2023-02-27T18:34:14;42.53;;;5.60;;
44102;SDS011;29769;42.178;24.742;2023-02-27T18:39:44;27.88;;;5.38;;
44102;SDS011;29769;42.178;24.742;2023-02-27T18:42:29;25.15;;;5.55;;
44102;SDS011;29769;42.178;24.742;2023-02-27T18:45:14;30.58;;;5.45;;
44102;SDS011;29769;42.178;24.742;2023-02-27T18:47:58;39.20;;;6.05;;
44102;SDS011;29769;42.178;24.742;2023-02-27T18:50:43;35.03;;;6.63;;
44102;SDS011;29769;42.178;24.742;2023-02-27T18:53:28;40.22;;;6.53;;
44102;SDS011;29769;42.178;24.742;2023-02-27T18:56:15;33.80;;;5.47;;
44102;SDS011;29769;42.178;24.742;2023-02-27T18:59:01;23.67;;;4.60;;
44102;SDS011;29769;42.178;24.742;2023-02-27T19:01:48;25.92;;;5.65;;
44102;SDS011;29769;42.178;24.742;2023-02-27T19:04:33;24.42;;;4.88;;
44102;SDS011;29769;42.178;24.742;2023-02-27T19:10:05;31.42;;;6.20;;
44102;SDS011;29769;42.178;24.742;2023-02-27T19:12:51;28.33;;;5.38;;
44102;SDS011;29769;42.178;24.742;2023-02-27T19:15:37;33.60;;;5.32;;
44102;SDS011;29769;42.178;24.742;2023-02-27T19:18:22;28.80;;;5.13;;
44102;SDS011;29769;42.178;24.742;2023-02-27T19:21:07;38.75;;;6.03;;
44102;SDS011;29769;42.178;24.742;2023-02-27T19:23:52;33.30;;;5.80;;
44102;SDS011;29769;42.178;24.742;2023-02-27T19:29:21;24.67;;;5.43;;
44102;SDS011;29769;42.178;24.742;2023-02-27T19:34:51;27.17;;;5.18;;
44102;SDS011;29769;42.178;24.742;2023-02-27T19:37:36;17.75;;;4.90;;
44102;SDS011;29769;42.178;24.742;2023-02-27T19:40:21;26.63;;;5.85;;
44102;SDS011;29769;42.178;24.742;2023-02-27T19:43:06;25.02;;;5.88;;
44102;SDS011;29769;42.178;24.742;2023-02-27T19:45:52;25.48;;;6.05;;
44102;SDS011;29769;42.178;24.742;2023-02-27T19:48:37;32.83;;;4.70;;
44102;SDS011;29769;42.178;24.742;2023-02-27T19:51:22;35.15;;;7.18;;
44102;SDS011;29769;42.178;24.742;2023-02-27T19:54:10;20.58;;;6.18;;
44102;SDS011;29769;42.178;24.742;2023-02-27T19:56:56;39.58;;;5.60;;
44102;SDS011;29769;42.178;24.742;2023-02-27T19:59:41;21.90;;;6.30;;
44102;SDS011;29769;42.178;24.742;2023-02-27T20:02:26;36.45;;;8.63;;
44102;SDS011;29769;42.178;24.742;2023-02-27T20:05:11;31.17;;;8.32;;
44102;SDS011;29769;42.178;24.742;2023-02-27T20:07:56;32.97;;;9.77;;
44102;SDS011;29769;42.178;24.742;2023-02-27T20:10:41;43.03;;;18.45;;
44102;SDS011;29769;42.178;24.742;2023-02-27T20:13:27;41.15;;;14.70;;